createdAt,value
2018-03-26T00:00:13.650Z,49.77
2018-03-26T00:02:41.176Z,44.33
2018-03-26T00:05:08.695Z,43.13
2018-03-26T00:07:36.209Z,45.40
2018-03-26T00:10:03.717Z,44.20
2018-03-26T00:12:31.215Z,44.70
2018-03-26T00:14:58.748Z,45.07
2018-03-26T00:17:26.238Z,42.73
2018-03-26T00:19:53.783Z,48.07
2018-03-26T00:22:21.278Z,42.67
2018-03-26T00:24:48.799Z,46.77
2018-03-26T00:27:16.363Z,45.77
2018-03-26T00:29:43.808Z,49.40
2018-03-26T00:32:11.321Z,46.17
2018-03-26T00:34:38.811Z,42.30
2018-03-26T00:37:06.358Z,47.73
2018-03-26T00:39:33.837Z,45.27
2018-03-26T00:42:01.386Z,44.13
2018-03-26T00:44:28.893Z,50.23
2018-03-26T00:46:56.412Z,46.83
2018-03-26T00:49:23.902Z,41.37
2018-03-26T00:51:51.419Z,48.07
2018-03-26T00:54:18.906Z,47.53
2018-03-26T00:56:46.416Z,44.83
2018-03-26T00:59:13.917Z,45.53
2018-03-26T01:01:41.430Z,46.90
2018-03-26T01:04:08.928Z,45.67
2018-03-26T01:06:36.446Z,40.80
2018-03-26T01:09:03.967Z,40.43
2018-03-26T01:11:31.486Z,44.83
2018-03-26T01:13:58.970Z,45.23
2018-03-26T01:16:26.487Z,44.93
2018-03-26T01:18:53.983Z,37.37
2018-03-26T01:21:21.522Z,49.37
2018-03-26T01:23:49.037Z,45.07
2018-03-26T01:26:16.522Z,50.37
2018-03-26T01:28:44.035Z,41.33
2018-03-26T01:31:11.527Z,43.60
2018-03-26T01:33:39.058Z,40.63
2018-03-26T01:36:06.563Z,41.83
2018-03-26T01:38:34.090Z,41.77
2018-03-26T01:41:01.584Z,42.43
2018-03-26T01:43:29.094Z,40.40
2018-03-26T01:45:56.586Z,41.27
2018-03-26T01:48:24.091Z,43.97
2018-03-26T01:50:51.582Z,40.37
2018-03-26T01:53:19.098Z,43.27
2018-03-26T01:55:46.594Z,43.73
2018-03-26T01:58:14.106Z,43.83
2018-03-26T02:00:41.610Z,46.60
2018-03-26T02:03:09.121Z,36.47
2018-03-26T02:05:36.629Z,42.30
2018-03-26T02:08:04.139Z,41.20
2018-03-26T02:10:31.632Z,47.67
2018-03-26T02:12:59.174Z,42.83
2018-03-26T02:15:26.661Z,44.07
2018-03-26T02:17:54.178Z,42.10
2018-03-26T02:20:21.667Z,43.83
2018-03-26T02:22:49.156Z,40.20
2018-03-26T02:25:16.667Z,39.47
2018-03-26T02:27:44.167Z,42.43
2018-03-26T02:30:11.704Z,40.27
2018-03-26T02:32:39.223Z,40.67
2018-03-26T02:35:06.745Z,42.50
2018-03-26T02:37:34.239Z,40.07
2018-03-26T02:40:01.758Z,44.10
2018-03-26T02:42:29.262Z,41.17
2018-03-26T02:44:56.775Z,38.80
2018-03-26T02:47:24.268Z,39.57
2018-03-26T02:49:51.785Z,39.20
2018-03-26T02:52:19.278Z,43.63
2018-03-26T02:54:46.824Z,40.43
2018-03-26T02:57:14.319Z,41.53
2018-03-26T02:59:41.828Z,45.47
2018-03-26T03:02:09.322Z,46.83
2018-03-26T03:04:36.834Z,46.63
2018-03-26T03:07:04.318Z,44.70
2018-03-26T03:09:31.835Z,44.77
2018-03-26T03:11:59.343Z,40.73
2018-03-26T03:14:26.854Z,43.57
2018-03-26T03:16:54.343Z,41.97
2018-03-26T03:19:21.830Z,47.07
2018-03-26T03:21:49.355Z,45.30
2018-03-26T03:24:16.851Z,43.20
2018-03-26T03:26:44.359Z,45.03
2018-03-26T03:29:11.851Z,47.37
2018-03-26T03:31:39.371Z,41.13
2018-03-26T03:34:06.888Z,43.97
2018-03-26T03:36:34.428Z,45.03
2018-03-26T03:39:01.933Z,46.33
2018-03-26T03:41:29.451Z,47.10
2018-03-26T03:43:57.910Z,45.63
2018-03-26T03:46:25.424Z,48.93
2018-03-26T03:48:52.914Z,50.40
2018-03-26T03:51:20.462Z,46.57
2018-03-26T03:53:48.136Z,52.57
2018-03-26T03:56:15.665Z,45.50
2018-03-26T03:58:43.231Z,50.73
2018-03-26T04:01:10.776Z,45.07
2018-03-26T04:03:38.296Z,53.40
2018-03-26T04:06:05.811Z,54.83
2018-03-26T04:08:33.304Z,46.83
2018-03-26T04:11:00.854Z,49.27
2018-03-26T04:13:28.342Z,46.50
2018-03-26T04:15:55.835Z,51.80
2018-03-26T04:18:23.370Z,46.80
2018-03-26T04:20:50.862Z,51.77
2018-03-26T04:23:18.383Z,49.17
2018-03-26T04:25:45.918Z,53.10
2018-03-26T04:28:13.418Z,49.60
2018-03-26T04:30:40.929Z,58.67
2018-03-26T04:33:08.442Z,54.90
2018-03-26T04:35:35.950Z,53.20
2018-03-26T04:38:03.458Z,52.97
2018-03-26T04:40:30.983Z,55.73
2018-03-26T04:42:58.507Z,63.07
2018-03-26T04:45:25.997Z,58.27
2018-03-26T04:47:53.515Z,57.40
2018-03-26T04:50:21.009Z,51.40
2018-03-26T04:52:48.582Z,58.00
2018-03-26T04:55:16.078Z,59.40
2018-03-26T04:57:43.599Z,55.90
2018-03-26T05:00:11.098Z,55.23
2018-03-26T05:02:38.662Z,60.07
2018-03-26T05:05:06.155Z,61.27
2018-03-26T05:07:33.655Z,56.13
2018-03-26T05:10:01.171Z,63.57
2018-03-26T05:12:28.679Z,61.00
2018-03-26T05:14:56.201Z,55.77
2018-03-26T05:17:23.694Z,54.07
2018-03-26T05:19:51.220Z,59.27
2018-03-26T05:22:18.707Z,59.93
2018-03-26T05:24:46.255Z,62.87
2018-03-26T05:27:13.753Z,59.53
2018-03-26T05:29:41.265Z,56.13
2018-03-26T05:32:08.769Z,56.43
2018-03-26T05:34:36.311Z,59.03
2018-03-26T05:37:03.797Z,51.83
2018-03-26T05:39:31.337Z,57.53
2018-03-26T05:41:58.876Z,49.60
2018-03-26T05:44:26.390Z,53.27
2018-03-26T05:46:53.874Z,52.13
2018-03-26T05:49:21.395Z,53.07
2018-03-26T05:51:48.902Z,52.27
2018-03-26T05:54:16.414Z,54.47
2018-03-26T05:56:43.911Z,49.77
2018-03-26T05:59:11.432Z,53.20
2018-03-26T06:01:38.965Z,55.07
2018-03-26T06:04:06.454Z,50.87
2018-03-26T06:06:33.966Z,57.20
2018-03-26T06:09:01.473Z,46.63
2018-03-26T06:11:29.033Z,48.73
2018-03-26T06:13:56.532Z,52.83
2018-03-26T06:16:24.044Z,56.57
2018-03-26T06:18:51.554Z,48.40
2018-03-26T06:21:19.079Z,49.47
2018-03-26T06:23:47.398Z,49.80
2018-03-26T06:26:15.002Z,57.23
2018-03-26T06:28:42.501Z,41.33
2018-03-26T06:31:10.107Z,49.27
2018-03-26T06:33:37.615Z,49.83
2018-03-26T06:36:06.669Z,47.77
2018-03-26T06:38:39.662Z,54.33
2018-03-26T06:41:07.193Z,47.53
2018-03-26T06:43:34.680Z,58.17
2018-03-26T06:46:02.203Z,59.83
2018-03-26T06:48:29.700Z,50.47
2018-03-26T06:50:57.224Z,45.60
2018-03-26T06:53:24.753Z,48.90
2018-03-26T06:55:52.308Z,44.40
2018-03-26T06:58:19.819Z,54.03
2018-03-26T07:00:47.319Z,50.60
2018-03-26T07:03:14.883Z,53.00
2018-03-26T07:05:42.382Z,57.87
2018-03-26T07:08:09.901Z,64.60
2018-03-26T07:10:37.403Z,58.23
2018-03-26T07:13:04.919Z,71.53
2018-03-26T07:15:32.483Z,62.50
2018-03-26T07:17:59.990Z,60.50
2018-03-26T07:20:27.488Z,64.40
2018-03-26T07:22:55.006Z,58.57
2018-03-26T07:25:22.503Z,68.73
2018-03-26T07:27:50.032Z,53.60
2018-03-26T07:30:17.522Z,58.33
2018-03-26T07:32:45.047Z,48.97
2018-03-26T07:35:12.557Z,48.23
2018-03-26T07:37:40.072Z,48.70
2018-03-26T07:40:07.680Z,53.23
2018-03-26T07:42:35.205Z,53.97
2018-03-26T07:45:02.691Z,50.53
2018-03-26T07:47:30.206Z,51.70
2018-03-26T07:49:57.700Z,52.60
2018-03-26T07:52:25.233Z,53.73
2018-03-26T07:54:52.722Z,51.93
2018-03-26T07:57:20.231Z,50.13
2018-03-26T07:59:47.751Z,48.57
2018-03-26T08:02:15.275Z,52.23
2018-03-26T08:04:42.894Z,52.57
2018-03-26T08:07:10.386Z,51.20
2018-03-26T08:09:37.903Z,50.73
2018-03-26T08:12:05.393Z,51.87
2018-03-26T08:14:32.925Z,54.67
2018-03-26T08:17:00.476Z,56.27
2018-03-26T08:19:27.963Z,51.37
2018-03-26T08:21:56.158Z,54.73
2018-03-26T08:24:23.679Z,54.43
2018-03-26T08:26:51.174Z,51.87
2018-03-26T08:29:18.694Z,50.27
2018-03-26T08:31:46.197Z,54.57
2018-03-26T08:34:13.715Z,56.07
2018-03-26T08:36:41.202Z,53.37
2018-03-26T08:39:08.738Z,55.30
2018-03-26T08:41:36.280Z,55.87
2018-03-26T08:44:03.794Z,52.57
2018-03-26T08:46:31.306Z,51.93
2018-03-26T08:48:58.872Z,53.77
2018-03-26T08:51:26.371Z,54.03
2018-03-26T08:53:53.866Z,56.77
2018-03-26T08:56:21.399Z,58.20
2018-03-26T08:58:48.929Z,57.20
2018-03-26T09:01:16.476Z,56.70
2018-03-26T09:03:43.998Z,58.70
2018-03-26T09:06:11.528Z,58.97
2018-03-26T09:08:39.028Z,57.30
2018-03-26T09:11:06.578Z,60.40
2018-03-26T09:13:34.096Z,60.03
2018-03-26T09:16:01.647Z,52.80
2018-03-26T09:18:29.142Z,55.27
2018-03-26T09:20:56.674Z,54.03
2018-03-26T09:23:24.166Z,54.10
2018-03-26T09:25:51.729Z,53.47
2018-03-26T09:28:19.198Z,52.03
2018-03-26T09:30:46.753Z,56.37
2018-03-26T09:33:14.268Z,52.27
2018-03-26T09:35:41.781Z,55.63
2018-03-26T09:38:09.285Z,54.30
2018-03-26T09:40:36.807Z,52.20
2018-03-26T09:43:04.320Z,55.60
2018-03-26T09:45:31.818Z,49.47
2018-03-26T09:47:59.346Z,50.17
2018-03-26T09:50:26.851Z,53.87
2018-03-26T09:52:54.394Z,55.03
2018-03-26T09:55:21.891Z,51.53
2018-03-26T09:57:49.416Z,50.97
2018-03-26T10:00:17.849Z,53.00
2018-03-26T10:02:45.378Z,51.57
2018-03-26T10:05:13.718Z,50.53
2018-03-26T10:07:41.260Z,52.43
2018-03-26T10:10:08.754Z,50.97
2018-03-26T10:12:36.279Z,52.67
2018-03-26T10:15:03.778Z,58.27
2018-03-26T10:17:31.294Z,51.30
2018-03-26T10:19:58.788Z,47.27
2018-03-26T10:22:26.320Z,52.43
2018-03-26T10:24:53.819Z,48.73
2018-03-26T10:27:21.338Z,51.17
2018-03-26T10:29:48.847Z,48.93
2018-03-26T10:32:16.390Z,50.43
2018-03-26T10:34:43.926Z,47.93
2018-03-26T10:37:11.616Z,48.03
2018-03-26T10:39:39.146Z,46.30
2018-03-26T10:42:06.658Z,47.97
2018-03-26T10:44:34.174Z,47.27
2018-03-26T10:47:01.683Z,55.03
2018-03-26T10:49:29.230Z,49.93
2018-03-26T10:51:56.747Z,52.00
2018-03-26T10:54:24.357Z,50.40
2018-03-26T10:56:51.877Z,47.40
2018-03-26T10:59:19.514Z,50.00
2018-03-26T11:01:48.144Z,50.00
2018-03-26T11:04:15.696Z,48.60
2018-03-26T11:06:43.382Z,50.97
2018-03-26T11:09:10.949Z,48.97
2018-03-26T11:11:38.493Z,58.80
2018-03-26T11:14:06.107Z,48.47
2018-03-26T11:16:33.623Z,47.80
2018-03-26T11:19:01.318Z,51.20
2018-03-26T11:21:28.809Z,52.33
2018-03-26T11:23:57.196Z,51.03
2018-03-26T11:26:24.827Z,54.13
2018-03-26T11:28:52.372Z,54.63
2018-03-26T11:31:19.966Z,49.70
2018-03-26T11:33:47.484Z,51.10
2018-03-26T11:36:16.087Z,55.57
2018-03-26T11:38:43.710Z,54.43
2018-03-26T11:41:11.228Z,53.43
2018-03-26T11:43:38.742Z,50.03
2018-03-26T11:46:06.356Z,52.70
2018-03-26T11:48:33.865Z,52.47
2018-03-26T11:51:01.581Z,54.00
2018-03-26T11:53:29.090Z,56.20
2018-03-26T11:55:56.621Z,49.20
2018-03-26T11:58:24.246Z,51.10
2018-03-26T12:00:51.794Z,53.70
2018-03-26T12:03:19.428Z,50.53
2018-03-26T12:05:46.947Z,52.37
2018-03-26T12:08:14.451Z,49.83
2018-03-26T12:10:41.969Z,50.87
2018-03-26T12:13:09.490Z,49.03
2018-03-26T12:15:37.167Z,56.93
2018-03-26T12:18:04.793Z,50.67
2018-03-26T12:20:44.026Z,49.70
2018-03-26T12:23:23.580Z,54.87
2018-03-26T12:25:51.136Z,52.73
2018-03-26T12:28:30.411Z,49.83
2018-03-26T12:30:58.203Z,55.30
2018-03-26T12:33:25.731Z,52.53
2018-03-26T12:35:55.717Z,51.10
2018-03-26T12:38:23.294Z,50.87
2018-03-26T12:40:51.513Z,52.83
2018-03-26T12:43:19.073Z,52.57
2018-03-26T12:48:47.529Z,52.33
2018-03-26T12:51:26.887Z,54.23
2018-03-26T12:53:54.410Z,52.73
2018-03-26T12:56:22.102Z,54.53
2018-03-26T12:58:49.666Z,51.23
2018-03-26T13:01:29.032Z,52.80
2018-03-26T13:03:56.831Z,49.73
2018-03-26T13:06:24.469Z,53.17
2018-03-26T13:08:51.987Z,49.87
2018-03-26T13:11:19.486Z,52.80
2018-03-26T13:13:48.052Z,54.53
2018-03-26T13:16:15.652Z,55.87
2018-03-26T13:18:43.216Z,55.00
2018-03-26T13:21:10.701Z,56.67
2018-03-26T13:23:38.554Z,52.97
2018-03-26T13:26:06.091Z,56.13
2018-03-26T13:28:33.618Z,52.63
2018-03-26T13:31:01.292Z,60.50
2018-03-26T13:33:28.846Z,53.67
2018-03-26T13:35:56.332Z,51.67
2018-03-26T13:38:24.135Z,52.57
2018-03-26T13:40:51.623Z,56.23
2018-03-26T13:43:19.117Z,52.57
2018-03-26T13:45:46.630Z,52.57
2018-03-26T13:48:14.279Z,54.80
2018-03-26T13:50:41.824Z,55.00
2018-03-26T13:53:09.310Z,54.13
2018-03-26T13:55:36.836Z,54.27
2018-03-26T13:58:04.327Z,55.57
2018-03-26T14:00:31.848Z,55.30
2018-03-26T14:02:59.347Z,52.33
2018-03-26T14:05:26.878Z,52.43
2018-03-26T14:07:54.370Z,49.03
2018-03-26T14:13:52.229Z,54.37
2018-03-26T14:16:31.422Z,56.60
2018-03-26T14:18:58.915Z,50.77
2018-03-26T14:21:26.422Z,50.90
2018-03-26T14:23:53.923Z,50.03
2018-03-26T14:26:21.439Z,54.53
2018-03-26T14:28:48.939Z,51.23
2018-03-26T14:31:16.458Z,55.00
2018-03-26T14:33:43.952Z,52.00
2018-03-26T14:36:11.477Z,56.73
2018-03-26T14:38:38.995Z,56.20
2018-03-26T14:41:06.512Z,52.70
2018-03-26T14:43:34.007Z,52.27
2018-03-26T14:46:01.535Z,54.50
2018-03-26T14:48:29.031Z,52.23
2018-03-26T14:50:56.553Z,55.33
2018-03-26T14:53:24.070Z,52.03
2018-03-26T14:55:51.564Z,51.50
2018-03-26T14:58:19.083Z,58.37
2018-03-26T15:00:46.598Z,55.60
2018-03-26T15:03:14.111Z,59.70
2018-03-26T15:05:41.625Z,58.43
2018-03-26T15:08:09.133Z,59.03
2018-03-26T15:10:36.638Z,57.40
2018-03-26T15:13:04.200Z,65.20
2018-03-26T15:15:31.691Z,61.03
2018-03-26T15:17:59.211Z,60.67
2018-03-26T15:20:26.739Z,59.07
2018-03-26T15:22:54.250Z,57.33
2018-03-26T15:25:21.737Z,56.63
2018-03-26T15:27:49.248Z,58.57
2018-03-26T15:30:16.735Z,57.93
2018-03-26T15:32:44.249Z,58.43
2018-03-26T15:35:11.743Z,60.33
2018-03-26T15:37:39.262Z,57.10
2018-03-26T15:40:06.759Z,56.07
2018-03-26T15:42:34.287Z,54.40
2018-03-26T15:45:01.776Z,53.27
2018-03-26T15:47:29.279Z,53.40
2018-03-26T15:49:56.789Z,54.00
2018-03-26T15:52:24.283Z,57.10
2018-03-26T15:54:51.808Z,52.73
2018-03-26T15:57:19.302Z,54.53
2018-03-26T15:59:46.824Z,51.60
2018-03-26T16:02:13.772Z,52.63
2018-03-26T16:04:41.320Z,50.17
2018-03-26T16:07:08.830Z,50.47
2018-03-26T16:09:36.343Z,46.13
2018-03-26T16:12:03.835Z,47.63
2018-03-26T16:14:31.357Z,48.17
2018-03-26T16:16:58.873Z,48.53
2018-03-26T16:19:26.388Z,48.10
2018-03-26T16:21:53.870Z,51.07
2018-03-26T16:24:21.353Z,49.80
2018-03-26T16:26:48.858Z,47.73
2018-03-26T16:29:16.348Z,49.77
2018-03-26T16:31:43.861Z,52.53
2018-03-26T16:34:11.353Z,51.47
2018-03-26T16:36:38.903Z,51.00
2018-03-26T16:39:06.399Z,50.17
2018-03-26T16:41:45.698Z,49.97
2018-03-26T16:44:13.186Z,45.30
2018-03-26T16:46:40.699Z,45.83
2018-03-26T16:49:08.198Z,47.93
2018-03-26T16:51:35.715Z,44.70
2018-03-26T16:54:03.198Z,50.03
2018-03-26T16:56:30.705Z,48.93
2018-03-26T16:58:58.204Z,53.80
2018-03-26T17:01:25.723Z,50.40
2018-03-26T17:03:53.247Z,51.87
2018-03-26T17:06:20.777Z,52.17
2018-03-26T17:08:48.264Z,52.87
2018-03-26T17:11:15.810Z,55.10
2018-03-26T17:13:43.299Z,50.27
2018-03-26T17:16:10.898Z,44.40
2018-03-26T17:18:38.410Z,45.00
2018-03-26T17:21:05.925Z,49.23
2018-03-26T17:23:33.406Z,49.27
2018-03-26T17:26:00.895Z,45.57
2018-03-26T17:28:28.420Z,48.37
2018-03-26T17:30:55.905Z,49.70
2018-03-26T17:33:23.405Z,52.37
2018-03-26T17:35:51.000Z,45.53
2018-03-26T17:38:18.519Z,49.83
2018-03-26T17:40:46.002Z,49.13
2018-03-26T17:43:13.506Z,45.00
2018-03-26T17:45:41.018Z,45.53
2018-03-26T17:48:08.563Z,51.57
2018-03-26T17:50:36.106Z,46.37
2018-03-26T17:53:03.616Z,44.63
2018-03-26T17:55:31.100Z,48.47
2018-03-26T17:57:58.638Z,46.23
2018-03-26T18:00:26.122Z,48.20
2018-03-26T18:02:53.634Z,52.40
2018-03-26T18:05:21.126Z,48.77
2018-03-26T18:07:48.707Z,47.60
2018-03-26T18:10:16.251Z,46.23
2018-03-26T18:12:43.722Z,45.63
2018-03-26T18:15:11.202Z,48.27
2018-03-26T18:17:38.718Z,51.17
2018-03-26T18:20:06.301Z,49.17
2018-03-26T18:22:33.791Z,45.30
2018-03-26T18:25:01.335Z,45.40
2018-03-26T18:27:28.826Z,44.53
2018-03-26T18:29:56.345Z,49.53
2018-03-26T18:32:23.830Z,46.57
2018-03-26T18:34:51.359Z,46.53
2018-03-26T18:37:18.849Z,46.67
2018-03-26T18:39:46.358Z,48.40
2018-03-26T18:42:13.838Z,51.73
2018-03-26T18:44:41.349Z,48.70
2018-03-26T18:47:08.846Z,54.03
2018-03-26T18:49:36.372Z,48.03
2018-03-26T18:52:04.650Z,50.27
2018-03-26T18:54:32.160Z,47.47
2018-03-26T18:56:59.720Z,50.07
2018-03-26T18:59:27.195Z,54.00
2018-03-26T19:01:54.677Z,48.87
2018-03-26T19:04:22.188Z,47.93
2018-03-26T19:06:49.670Z,50.33
2018-03-26T19:09:17.200Z,50.97
2018-03-26T19:11:44.686Z,49.30
2018-03-26T19:14:12.235Z,51.53
2018-03-26T19:16:39.781Z,56.57
2018-03-26T19:19:07.266Z,54.27
2018-03-26T19:21:34.783Z,55.43
2018-03-26T19:24:02.299Z,49.43
2018-03-26T19:26:29.818Z,52.93
2018-03-26T19:28:57.348Z,53.50
2018-03-26T19:31:24.870Z,56.43
2018-03-26T19:33:52.413Z,50.17
2018-03-26T19:36:19.918Z,68.50
2018-03-26T19:38:47.399Z,60.63
2018-03-26T19:41:14.917Z,59.40
2018-03-26T19:43:42.401Z,54.37
2018-03-26T19:46:09.916Z,57.27
2018-03-26T19:48:37.417Z,51.63
2018-03-26T19:51:04.930Z,57.93
2018-03-26T19:53:32.414Z,58.23
2018-03-26T19:55:59.929Z,60.30
2018-03-26T19:58:27.435Z,56.20
2018-03-26T20:00:54.959Z,55.70
2018-03-26T20:03:22.444Z,57.63
2018-03-26T20:05:49.967Z,57.53
2018-03-26T20:08:17.456Z,59.03
2018-03-26T20:10:45.001Z,57.87
2018-03-26T20:13:12.475Z,56.97
2018-03-26T20:15:39.960Z,57.30
2018-03-26T20:18:07.463Z,64.17
2018-03-26T20:20:34.944Z,59.83
2018-03-26T20:23:02.511Z,59.53
2018-03-26T20:25:30.000Z,59.27
2018-03-26T20:27:57.511Z,60.00
2018-03-26T20:30:24.993Z,56.67
2018-03-26T20:32:52.499Z,60.77
2018-03-26T20:35:19.992Z,61.73
2018-03-26T20:37:47.495Z,58.93
2018-03-26T20:40:14.994Z,59.93
2018-03-26T20:42:42.506Z,57.30
2018-03-26T20:45:09.990Z,60.37
2018-03-26T20:47:37.506Z,59.37
2018-03-26T20:50:04.995Z,59.27
2018-03-26T20:52:32.510Z,60.50
2018-03-26T20:55:00.002Z,65.40
2018-03-26T20:57:27.522Z,59.80
2018-03-26T20:59:55.008Z,62.23
2018-03-26T21:02:22.524Z,62.67
2018-03-26T21:04:50.015Z,57.90
2018-03-26T21:07:17.526Z,60.97
2018-03-26T21:09:45.010Z,62.17
2018-03-26T21:12:12.495Z,62.83
2018-03-26T21:14:40.002Z,62.93
2018-03-26T21:17:07.511Z,65.43
2018-03-26T21:19:35.092Z,64.87
2018-03-26T21:22:02.626Z,64.13
2018-03-26T21:24:30.200Z,66.10
2018-03-26T21:26:57.701Z,64.27
2018-03-26T21:29:25.236Z,66.57
2018-03-26T21:31:54.602Z,68.23
2018-03-26T21:34:22.285Z,69.67
2018-03-26T21:36:49.819Z,70.33
2018-03-26T21:39:17.339Z,71.13
2018-03-26T21:41:44.847Z,72.60
2018-03-26T21:44:12.372Z,75.30
2018-03-26T21:46:39.889Z,74.23
2018-03-26T21:49:07.522Z,75.03
2018-03-26T21:51:35.008Z,74.40
2018-03-26T21:54:02.528Z,79.70
2018-03-26T21:56:30.049Z,78.40
2018-03-26T21:58:57.575Z,76.13
2018-03-26T22:01:25.154Z,74.93
2018-03-26T22:03:52.678Z,81.27
2018-03-26T22:06:20.194Z,80.57
2018-03-26T22:08:47.748Z,81.70
2018-03-26T22:11:15.300Z,89.80
2018-03-26T22:13:42.791Z,81.03
2018-03-26T22:16:10.303Z,79.67
2018-03-26T22:18:37.849Z,81.43
2018-03-26T22:21:05.371Z,76.13
2018-03-26T22:23:32.874Z,79.93
2018-03-26T22:26:00.398Z,78.50
2018-03-26T22:28:28.997Z,78.60
2018-03-26T22:30:56.512Z,81.00
2018-03-26T22:33:24.034Z,81.03
2018-03-26T22:35:51.601Z,85.77
2018-03-26T22:38:19.175Z,77.07
2018-03-26T22:40:46.691Z,78.17
2018-03-26T22:43:14.196Z,77.70
2018-03-26T22:45:41.798Z,78.47
2018-03-26T22:48:09.341Z,85.17
2018-03-26T22:50:36.859Z,78.63
2018-03-26T22:53:04.377Z,83.77
2018-03-26T22:55:31.905Z,80.50
2018-03-26T22:57:59.409Z,82.70
2018-03-26T23:00:26.914Z,84.87
2018-03-26T23:02:54.437Z,83.03
2018-03-26T23:05:21.965Z,83.80
2018-03-26T23:07:49.480Z,79.73
2018-03-26T23:10:16.978Z,88.00
2018-03-26T23:12:44.523Z,90.47
2018-03-26T23:15:12.011Z,88.93
2018-03-26T23:17:39.589Z,89.57
2018-03-26T23:20:07.107Z,94.87
2018-03-26T23:22:46.437Z,88.70
2018-03-26T23:25:13.928Z,93.53
2018-03-26T23:27:41.459Z,95.53
2018-03-26T23:30:08.966Z,97.53
2018-03-26T23:32:36.528Z,98.00
2018-03-26T23:35:04.038Z,98.70
2018-03-26T23:37:31.565Z,101.47
2018-03-26T23:39:59.074Z,110.03
2018-03-26T23:42:26.626Z,104.67
2018-03-26T23:44:54.160Z,102.33
2018-03-26T23:47:21.705Z,105.10
2018-03-26T23:49:49.216Z,104.63
2018-03-26T23:52:16.744Z,107.83
2018-03-26T23:54:44.356Z,115.83
2018-03-26T23:57:11.890Z,111.67
2018-03-26T23:59:39.420Z,110.97
